createdAt,value
2022-08-25T00:03:13.759Z,20.90
2022-08-25T00:08:16.783Z,18.80
2022-08-25T00:13:19.823Z,22.10
2022-08-25T00:18:27.442Z,17.80
2022-08-25T00:23:30.520Z,26.20
2022-08-25T00:28:34.032Z,21.10
2022-08-25T00:33:37.045Z,22.80
2022-08-25T00:38:42.139Z,22.80
2022-08-25T00:43:52.156Z,22.40
2022-08-25T00:49:04.834Z,22.30
2022-08-25T00:54:11.843Z,23.10
2022-08-25T00:59:16.670Z,19.00
2022-08-25T01:04:20.590Z,20.00
2022-08-25T01:09:24.436Z,21.40
2022-08-25T01:14:31.653Z,22.30
2022-08-25T01:19:34.719Z,20.30
2022-08-25T01:24:53.538Z,23.40
2022-08-25T01:29:58.057Z,24.00
2022-08-25T01:35:01.135Z,21.10
2022-08-25T01:40:06.770Z,18.50
2022-08-25T01:45:10.711Z,24.20
2022-08-25T01:50:16.246Z,23.50
2022-08-25T01:55:19.699Z,27.30
2022-08-25T02:00:24.631Z,29.10
2022-08-25T02:05:27.685Z,26.00
2022-08-25T02:10:33.832Z,24.20
2022-08-25T02:15:46.713Z,22.40
2022-08-25T02:20:49.777Z,23.10
2022-08-25T02:25:53.234Z,24.40
2022-08-25T02:31:01.156Z,27.20
2022-08-25T02:36:05.871Z,25.30
2022-08-25T02:41:15.930Z,27.70
2022-08-25T02:46:25.282Z,20.20
2022-08-25T02:51:30.436Z,24.60
2022-08-25T02:56:34.075Z,22.70
2022-08-25T03:01:37.184Z,30.60
2022-08-25T03:06:41.026Z,23.70
2022-08-25T03:11:44.105Z,22.40
2022-08-25T03:16:47.318Z,26.10
2022-08-25T03:21:52.609Z,23.80
2022-08-25T03:26:56.214Z,24.80
2022-08-25T03:32:00.452Z,22.30
2022-08-25T03:37:05.943Z,29.00
2022-08-25T03:42:09.071Z,23.60
2022-08-25T03:47:12.841Z,24.50
2022-08-25T03:52:18.402Z,25.60
2022-08-25T03:57:21.448Z,29.40
2022-08-25T04:02:24.627Z,31.80
2022-08-25T04:07:27.718Z,26.50
2022-08-25T04:12:30.682Z,22.70
2022-08-25T04:17:38.624Z,24.20
2022-08-25T04:22:44.886Z,24.20
2022-08-25T04:27:48.567Z,22.70
2022-08-25T04:32:51.546Z,27.00
2022-08-25T04:37:54.550Z,19.80
2022-08-25T04:42:57.754Z,23.50
2022-08-25T04:48:01.597Z,21.10
2022-08-25T04:53:04.784Z,26.40
2022-08-25T04:58:10.102Z,24.40
2022-08-25T05:03:17.811Z,29.00
2022-08-25T05:08:20.854Z,26.90
2022-08-25T05:13:26.407Z,23.90
2022-08-25T05:18:32.503Z,24.60
2022-08-25T05:23:36.436Z,29.50
2022-08-25T05:28:42.176Z,27.40
2022-08-25T05:33:45.196Z,30.10
2022-08-25T05:38:48.763Z,25.90
2022-08-25T05:43:52.071Z,26.90
2022-08-25T05:48:55.344Z,30.00
2022-08-25T05:53:58.343Z,33.40
2022-08-25T05:59:04.039Z,29.20
2022-08-25T06:04:09.559Z,34.00
2022-08-25T06:09:12.901Z,31.20
2022-08-25T06:14:16.029Z,30.50
2022-08-25T06:19:19.399Z,28.50
2022-08-25T06:24:22.810Z,39.10
2022-08-25T06:29:30.279Z,38.90
2022-08-25T06:34:36.819Z,31.60
2022-08-25T06:39:44.942Z,35.40
2022-08-25T06:44:49.388Z,34.50
2022-08-25T06:49:52.678Z,33.90
2022-08-25T06:54:55.740Z,37.40
2022-08-25T06:59:58.712Z,27.90
2022-08-25T07:05:01.727Z,31.10
2022-08-25T07:10:05.885Z,34.90
2022-08-25T07:15:19.770Z,34.30
2022-08-25T07:25:31.643Z,34.30
2022-08-25T07:30:35.212Z,26.70
2022-08-25T07:35:38.775Z,28.10
2022-08-25T07:40:43.536Z,33.00
2022-08-25T07:45:49.666Z,23.50
2022-08-25T07:50:52.775Z,26.70
2022-08-25T07:55:55.851Z,23.50
2022-08-25T08:00:58.873Z,28.10
2022-08-25T08:06:07.099Z,23.20
2022-08-25T08:11:17.427Z,28.30
2022-08-25T08:16:24.202Z,27.20
2022-08-25T08:21:32.349Z,25.90
2022-08-25T08:26:57.826Z,30.40
2022-08-25T08:31:58.596Z,27.90
2022-08-25T08:37:02.518Z,21.30
2022-08-25T08:42:54.944Z,21.90
2022-08-25T08:48:10.415Z,24.60
2022-08-25T08:53:22.982Z,23.10
2022-08-25T08:58:39.954Z,27.20
2022-08-25T09:03:55.391Z,22.00
2022-08-25T09:09:06.652Z,23.20
2022-08-25T09:15:17.525Z,22.60
2022-08-25T09:21:28.137Z,21.10
2022-08-25T09:26:52.758Z,15.80
2022-08-25T09:32:00.549Z,20.70
2022-08-25T09:37:05.147Z,19.50
2022-08-25T09:42:08.322Z,20.60
2022-08-25T09:47:18.624Z,18.30
2022-08-25T09:52:37.586Z,14.40
2022-08-25T09:57:43.371Z,14.60
2022-08-25T10:03:10.234Z,9.80
2022-08-25T10:08:32.984Z,12.20
2022-08-25T10:13:47.230Z,13.00
2022-08-25T10:19:14.578Z,12.60
2022-08-25T10:24:17.906Z,11.20
2022-08-25T10:30:07.856Z,16.70
2022-08-25T10:35:20.637Z,11.90
2022-08-25T10:40:57.963Z,12.20
2022-08-25T10:46:36.895Z,12.30
2022-08-25T10:52:16.897Z,10.80
2022-08-25T10:57:37.644Z,14.40
2022-08-25T11:03:35.588Z,13.00
2022-08-25T11:08:54.725Z,14.30
2022-08-25T11:14:19.366Z,16.40
2022-08-25T11:19:39.453Z,14.90
2022-08-25T11:25:05.839Z,11.70
2022-08-25T11:30:14.229Z,18.00
2022-08-25T11:35:27.492Z,14.30
2022-08-25T11:41:11.614Z,13.20
2022-08-25T11:46:45.718Z,11.00
2022-08-25T11:51:51.380Z,11.70
2022-08-25T11:57:10.848Z,11.00
2022-08-25T12:02:42.544Z,10.50
2022-08-25T12:07:49.073Z,11.00
2022-08-25T12:13:23.343Z,9.00
2022-08-25T12:18:32.431Z,10.10
2022-08-25T12:24:12.078Z,9.30
2022-08-25T12:29:34.906Z,10.50
2022-08-25T12:35:17.381Z,12.20
2022-08-25T12:40:33.834Z,9.60
2022-08-25T12:45:40.822Z,10.60
2022-08-25T12:50:48.305Z,11.30
2022-08-25T12:56:39.045Z,8.70
2022-08-25T13:08:01.337Z,10.40
2022-08-25T13:13:18.112Z,10.70
2022-08-25T13:18:29.935Z,11.90
2022-08-25T13:23:38.067Z,10.90
2022-08-25T13:28:42.923Z,11.60
2022-08-25T13:34:03.578Z,10.40
2022-08-25T13:39:15.898Z,14.40
2022-08-25T13:44:22.658Z,9.70
2022-08-25T13:49:26.813Z,7.70
2022-08-25T13:54:43.280Z,11.20
2022-08-25T13:59:52.467Z,14.70
2022-08-25T14:04:55.550Z,10.40
2022-08-25T14:10:23.051Z,9.60
2022-08-25T14:15:32.190Z,12.20
2022-08-25T14:20:37.962Z,9.90
2022-08-25T14:25:42.382Z,7.50
2022-08-25T14:30:56.942Z,9.10
2022-08-25T14:36:02.977Z,10.00
2022-08-25T14:46:27.888Z,12.90
2022-08-25T14:51:33.421Z,12.40
2022-08-25T14:56:43.013Z,11.10
2022-08-25T15:01:46.554Z,8.90
2022-08-25T15:07:23.677Z,8.80
2022-08-25T15:12:46.640Z,9.20
2022-08-25T15:17:50.750Z,11.90
2022-08-25T15:22:53.782Z,9.70
2022-08-25T15:27:57.973Z,10.20
2022-08-25T15:33:01.126Z,9.40
2022-08-25T15:38:04.185Z,9.50
2022-08-25T15:43:07.702Z,9.80
2022-08-25T15:48:10.859Z,8.00
2022-08-25T15:53:14.603Z,12.70
2022-08-25T15:58:17.686Z,9.70
2022-08-25T16:03:20.703Z,12.90
2022-08-25T16:08:26.740Z,9.10
2022-08-25T16:13:29.814Z,7.40
2022-08-25T16:18:32.929Z,8.90
2022-08-25T16:23:36.408Z,8.00
2022-08-25T16:28:43.949Z,11.00
2022-08-25T16:33:47.437Z,7.10
2022-08-25T16:38:52.429Z,10.20
2022-08-25T16:43:55.479Z,9.60
2022-08-25T16:49:05.037Z,7.30
2022-08-25T16:54:30.497Z,8.90
2022-08-25T16:59:33.525Z,16.80
2022-08-25T17:04:36.845Z,10.20
2022-08-25T17:09:40.963Z,11.80
2022-08-25T17:14:43.973Z,12.00
2022-08-25T17:19:51.837Z,13.30
2022-08-25T17:25:00.719Z,12.10
2022-08-25T17:30:05.246Z,14.60
2022-08-25T17:35:09.887Z,9.40
2022-08-25T17:40:17.329Z,11.20
2022-08-25T17:45:20.391Z,14.50
2022-08-25T17:50:25.165Z,11.80
2022-08-25T17:55:28.244Z,12.50
2022-08-25T18:00:32.950Z,11.60
2022-08-25T18:05:38.575Z,14.00
2022-08-25T18:10:44.824Z,11.70
2022-08-25T18:15:47.793Z,11.80
2022-08-25T18:20:50.804Z,13.20
2022-08-25T18:26:00.846Z,11.10
2022-08-25T18:31:04.574Z,12.60
2022-08-25T18:36:10.005Z,13.50
2022-08-25T18:41:13.545Z,18.50
2022-08-25T18:46:17.323Z,21.40
2022-08-25T18:51:25.925Z,17.90
2022-08-25T18:56:29.973Z,17.90
2022-08-25T19:01:33.387Z,21.50
2022-08-25T19:06:37.465Z,20.80
2022-08-25T19:11:40.683Z,21.00
2022-08-25T19:16:44.619Z,13.60
2022-08-25T19:21:48.273Z,15.40
2022-08-25T19:26:54.578Z,15.40
2022-08-25T19:31:58.686Z,21.00
2022-08-25T19:37:06.330Z,24.00
2022-08-25T19:42:36.800Z,12.90
2022-08-25T19:47:35.083Z,14.70
2022-08-25T19:52:40.180Z,16.40
2022-08-25T19:57:46.281Z,10.30
2022-08-25T20:02:51.387Z,12.40
2022-08-25T20:07:57.749Z,14.60
2022-08-25T20:13:02.069Z,14.30
2022-08-25T20:18:05.253Z,11.60
2022-08-25T20:23:28.261Z,12.30
2022-08-25T20:28:32.478Z,12.30
2022-08-25T20:33:38.854Z,12.10
2022-08-25T20:38:44.942Z,10.50
2022-08-25T20:43:47.959Z,14.50
2022-08-25T20:48:50.981Z,14.70
2022-08-25T20:53:55.210Z,16.40
2022-08-25T20:59:00.002Z,14.70
2022-08-25T21:04:14.300Z,14.70
2022-08-25T21:09:23.077Z,17.30
2022-08-25T21:14:26.638Z,17.40
2022-08-25T21:19:32.011Z,13.00
2022-08-25T21:24:35.354Z,14.20
2022-08-25T21:29:38.907Z,11.30
2022-08-25T21:34:53.350Z,13.90
2022-08-25T21:39:56.727Z,15.10
2022-08-25T21:45:00.069Z,13.90
2022-08-25T21:50:06.376Z,13.90
2022-08-25T21:55:16.177Z,13.50
2022-08-25T22:00:21.216Z,15.90
2022-08-25T22:05:24.632Z,12.60
2022-08-25T22:10:27.684Z,14.90
2022-08-25T22:15:31.270Z,15.20
2022-08-25T22:20:34.321Z,13.40
2022-08-25T22:25:42.787Z,14.30
2022-08-25T22:30:45.860Z,15.80
2022-08-25T22:35:53.155Z,17.40
2022-08-25T22:41:02.954Z,14.70
2022-08-25T22:46:08.347Z,13.30
2022-08-25T22:51:21.468Z,14.60
2022-08-25T22:56:33.224Z,14.80
2022-08-25T23:01:36.813Z,14.10
2022-08-25T23:06:41.100Z,14.70
2022-08-25T23:11:45.585Z,15.10
2022-08-25T23:16:50.147Z,17.00
2022-08-25T23:22:13.307Z,18.70
2022-08-25T23:27:22.102Z,13.00
2022-08-25T23:32:26.998Z,14.00
2022-08-25T23:37:31.317Z,15.90
2022-08-25T23:42:34.280Z,16.40
2022-08-25T23:47:37.667Z,15.40
2022-08-25T23:52:40.645Z,20.80
2022-08-25T23:57:44.032Z,19.40
